East Coast - Cape St. Francis and south: Past 24 Hour Conditions

 

East Scotia Slope - 44137

07:00 PM ADT 22 October 2014Buoy position: 42.28N 62.0W
This table is a summary of hourly weather conditions for the past 24 hours.
Date / Time
(ADT)
Wind(knots) Wave height(m) Wave period(s) Pressure(kPa) Air tempC) Water tempC)
22 October 2014
19:00 ESE 18 gust 21 3.5 9.0 101.6 20 19
18:00 E 19 gust 25 3.3 8.0 101.7 19 19
17:00 N/A N/A N/A N/A N/A N/A
16:00 ESE 16 gust 18 3.3 8.0 101.7 20 19
15:00 SE 21 gust 25 3.8 8.0 101.7 20 19
14:00 SE 16 gust 21 3.6 8.0 101.8 20 19
13:00 SE 23 gust 29 3.1 7.0 101.8 21 19
12:00 SE 19 gust 23 2.7 7.0 101.8 21 19
11:00 ESE 21 gust 25 2.7 7.0 101.9 20 19
10:00 ESE 16 gust 21 2.3 7.0 101.9 20 19
9:00 E 18 gust 21 2.0 7.0 101.9 20 19
8:00 E 19 gust 23 2.0 7.0 101.9 19 19
7:00 E 23 gust 29 1.8 6.0 101.9 20 19
6:00 E 19 gust 23 1.7 6.0 101.9 20 19
5:00 ESE 14 gust 16 1.5 5.0 101.9 20 19
4:00 SE 16 gust 18 1.5 10.0 101.9 20 19
3:00 SSE 14 gust 18 1.5 10.0 102.0 20 19
2:00 SE 16 gust 19 1.3 10.0 102.1 20 19
1:00 SE 14 gust 19 1.3 9.0 102.1 20 19
0:00 E 16 gust 19 1.3 10.0 102.1 19 19
21 October 2014
23:00 E 18 gust 19 1.2 9.0 102.2 19 19
22:00 E 14 gust 16 1.2 10.0 102.2 18 19
21:00 ESE 12 gust 16 1.3 8.0 102.2 18 19
20:00 SE 8 gust 12 1.4 9.0 102.3 18 19
19:00 SSE 6 gust 10 1.4 7.0 102.3 17 19
 
Map of Atlantic - Maritimes marine weather areas East Scotia Slope - 44137 Southwestern Grand Banks - 44138 Banquereau - 44139 Laurentian Fan - 44141 LaHave Bank - 44150 Northeast Burgeo Bank - 44255 Halifax Harbour - 44258 Mont-Louis - 45138 Baie-Comeau Airport Havre-Saint-Pierre Airport Longue-Pointe-de-Mingan Sept-Îles Airport Cap-d'Espoir Rivière-la-Madeleine Gaspé Airport Heath Point La Pocatière Mont-Joli Airport New Carlisle Pointe-au-Père Port Menier Rivière-du-Loup Bas Caraquet Bathurst Airport Bouctouche AAFC Charlo Miramichi Fundy Park (Alma) Grand Manan Kouchibouguac Miscou Island Greater Moncton Int'l Airport Point Lepreau Saint John Airport St. Stephen Baccaro Point Beaver Island Brier Island Caribou Point Debert Grand Étang CFB Greenwood Hart Island Ingonish Beach Kentville AAFC Lunenburg McNabs Island Nappan AAFC North Mountain Parrsboro Sable Island St.Paul Island Shearwater Airport J.A. Douglas McCurdy Sydney Airport Tracadie Western Head Yarmouth Airport Charlottetown Airport East Point North Cape Summerside Burgeo Port aux Basques Sagona Island St. Lawrence Stephenville Airport Winterland Wreckhouse Île aux Perroquets Île Rouge Pointe-des-Monts Pointe-Noire Île Bicquette Cap-Chat Îles de la Madeleine Airport
Legend: buoyBuoy land stationLand Station » US Marine Weather